createdAt,value
2023-02-19T00:01:36.576Z,6.03
2023-02-19T00:04:07.304Z,6.43
2023-02-19T00:06:36.193Z,6.37
2023-02-19T00:09:04.558Z,6.47
2023-02-19T00:11:34.115Z,6.83
2023-02-19T00:14:03.506Z,5.43
2023-02-19T00:16:32.897Z,6.67
2023-02-19T00:19:02.404Z,6.90
2023-02-19T00:21:30.344Z,7.30
2023-02-19T00:24:01.494Z,7.83
2023-02-19T00:26:29.571Z,6.87
2023-02-19T00:28:58.010Z,7.03
2023-02-19T00:31:27.643Z,7.00
2023-02-19T00:33:58.665Z,6.23
2023-02-19T00:36:28.004Z,5.90
2023-02-19T00:38:55.376Z,6.53
2023-02-19T00:41:24.666Z,6.10
2023-02-19T00:43:54.818Z,6.20
2023-02-19T00:46:24.344Z,6.40
2023-02-19T00:48:54.813Z,7.27
2023-02-19T00:51:23.569Z,5.37
2023-02-19T00:53:51.337Z,6.00
2023-02-19T00:56:18.822Z,5.33
2023-02-19T00:58:48.278Z,5.27
2023-02-19T01:01:15.956Z,5.50
2023-02-19T01:03:43.312Z,6.67
2023-02-19T01:06:13.115Z,5.97
2023-02-19T01:08:40.098Z,5.77
2023-02-19T01:11:08.889Z,6.03
2023-02-19T01:13:36.241Z,5.37
2023-02-19T01:16:06.796Z,4.57
2023-02-19T01:18:33.987Z,3.80
2023-02-19T01:21:05.530Z,3.97
2023-02-19T01:23:32.725Z,4.60
2023-02-19T01:25:59.688Z,3.37
2023-02-19T01:28:26.854Z,2.97
2023-02-19T01:30:53.821Z,3.43
2023-02-19T01:33:22.350Z,3.37
2023-02-19T01:35:49.296Z,3.33
2023-02-19T01:38:16.154Z,3.17
2023-02-19T01:40:43.050Z,3.70
2023-02-19T01:43:16.083Z,3.60
2023-02-19T01:45:45.304Z,3.73
2023-02-19T01:48:18.879Z,3.23
2023-02-19T01:50:52.678Z,3.60
2023-02-19T01:53:25.840Z,4.00
2023-02-19T01:55:59.367Z,3.80
2023-02-19T01:58:33.335Z,3.10
2023-02-19T02:01:02.793Z,3.10
2023-02-19T02:03:31.255Z,3.67
2023-02-19T02:06:05.233Z,2.90
2023-02-19T02:08:52.165Z,3.20
2023-02-19T02:11:20.605Z,3.20
2023-02-19T02:13:48.762Z,2.97
2023-02-19T02:16:25.236Z,3.20
2023-02-19T02:19:09.560Z,3.00
2023-02-19T02:21:59.027Z,3.80
2023-02-19T02:25:13.125Z,3.30
2023-02-19T02:27:51.429Z,3.07
2023-02-19T02:30:39.112Z,2.67
2023-02-19T02:33:21.616Z,3.17
2023-02-19T02:35:54.222Z,3.37
2023-02-19T02:38:28.080Z,2.90
2023-02-19T02:40:56.643Z,3.33
2023-02-19T02:43:24.409Z,3.63
2023-02-19T02:45:52.790Z,3.00
2023-02-19T02:48:30.290Z,3.50
2023-02-19T02:51:04.734Z,3.27
2023-02-19T02:53:57.181Z,3.30
2023-02-19T02:56:26.416Z,3.73
2023-02-19T02:58:57.553Z,3.00
2023-02-19T03:01:51.265Z,3.60
2023-02-19T03:04:27.482Z,3.20
2023-02-19T03:06:56.424Z,2.93
2023-02-19T03:09:40.565Z,2.50
2023-02-19T03:12:32.387Z,2.80
2023-02-19T03:15:28.488Z,2.10
2023-02-19T03:18:21.005Z,2.30
2023-02-19T03:20:53.216Z,2.43
2023-02-19T03:23:43.369Z,1.67
2023-02-19T03:26:11.946Z,1.87
2023-02-19T03:29:00.918Z,1.90
2023-02-19T03:31:33.112Z,1.90
2023-02-19T03:34:05.687Z,1.73
2023-02-19T03:36:42.218Z,2.40
2023-02-19T03:39:14.174Z,2.20
2023-02-19T03:41:53.005Z,1.97
2023-02-19T03:44:33.418Z,2.60
2023-02-19T03:47:08.328Z,2.20
2023-02-19T03:49:48.836Z,1.70
2023-02-19T03:52:23.732Z,1.70
2023-02-19T03:55:03.068Z,1.53
2023-02-19T03:57:39.359Z,2.13
2023-02-19T04:00:13.826Z,1.40
2023-02-19T04:02:50.201Z,2.23
2023-02-19T04:05:22.619Z,2.00
2023-02-19T04:07:54.280Z,1.83
2023-02-19T04:10:22.566Z,1.90
2023-02-19T04:12:57.664Z,2.07
2023-02-19T04:15:31.615Z,1.83
2023-02-19T04:18:04.124Z,2.10
2023-02-19T04:20:39.081Z,1.73
2023-02-19T04:23:06.860Z,1.73
2023-02-19T04:25:37.067Z,1.77
2023-02-19T04:28:04.662Z,1.43
2023-02-19T04:30:32.488Z,2.10
2023-02-19T04:32:59.357Z,1.70
2023-02-19T04:35:26.326Z,1.83
2023-02-19T04:37:54.500Z,1.73
2023-02-19T04:40:21.370Z,1.77
2023-02-19T04:42:48.219Z,1.37
2023-02-19T04:45:15.272Z,1.90
2023-02-19T04:47:42.120Z,2.10
2023-02-19T04:50:09.248Z,2.00
2023-02-19T04:52:36.382Z,1.73
2023-02-19T04:55:05.889Z,2.30
2023-02-19T04:57:32.760Z,2.20
2023-02-19T04:59:59.668Z,2.30
2023-02-19T05:02:26.617Z,1.73
2023-02-19T05:04:53.582Z,1.80
2023-02-19T05:07:20.446Z,2.40
2023-02-19T05:09:47.363Z,1.40
2023-02-19T05:12:15.532Z,1.67
2023-02-19T05:14:42.400Z,1.90
2023-02-19T05:17:09.277Z,1.77
2023-02-19T05:19:36.229Z,1.70
2023-02-19T05:22:03.137Z,2.07
2023-02-19T05:24:31.459Z,2.00
2023-02-19T05:26:58.387Z,1.73
2023-02-19T05:29:26.908Z,1.80
2023-02-19T05:31:53.931Z,1.90
2023-02-19T05:34:20.929Z,1.40
2023-02-19T05:36:47.792Z,1.70
2023-02-19T05:39:14.738Z,1.40
2023-02-19T05:41:41.873Z,1.57
2023-02-19T05:44:10.609Z,1.40
2023-02-19T05:46:38.920Z,1.53
2023-02-19T05:49:05.848Z,1.77
2023-02-19T05:51:32.731Z,1.50
2023-02-19T05:53:59.672Z,1.70
2023-02-19T05:56:35.914Z,1.97
2023-02-19T05:59:07.758Z,1.70
2023-02-19T06:01:35.482Z,1.83
2023-02-19T06:04:04.180Z,2.10
2023-02-19T06:06:31.219Z,1.83
2023-02-19T06:08:58.253Z,1.80
2023-02-19T06:11:25.717Z,1.67
2023-02-19T06:13:53.006Z,2.37
2023-02-19T06:16:20.023Z,1.80
2023-02-19T06:18:47.524Z,1.93
2023-02-19T06:21:17.405Z,1.80
2023-02-19T06:23:44.847Z,1.73
2023-02-19T06:26:14.761Z,1.47
2023-02-19T06:28:42.593Z,2.03
2023-02-19T06:31:10.892Z,2.27
2023-02-19T06:33:40.425Z,1.90
2023-02-19T06:36:11.523Z,1.83
2023-02-19T06:38:40.271Z,2.03
2023-02-19T06:41:09.802Z,2.13
2023-02-19T06:43:36.938Z,2.13
2023-02-19T06:46:06.530Z,2.33
2023-02-19T06:48:34.883Z,1.67
2023-02-19T06:51:02.079Z,1.83
2023-02-19T06:53:29.463Z,1.70
2023-02-19T06:55:59.616Z,2.20
2023-02-19T06:58:26.993Z,1.77
2023-02-19T07:00:54.221Z,1.70
2023-02-19T07:03:21.913Z,1.90
2023-02-19T07:05:49.070Z,2.10
2023-02-19T07:08:17.244Z,2.10
2023-02-19T07:10:44.549Z,1.70
2023-02-19T07:13:12.899Z,2.13
2023-02-19T07:15:39.786Z,2.33
2023-02-19T07:18:10.215Z,2.23
2023-02-19T07:20:37.612Z,2.13
2023-02-19T07:23:04.531Z,2.33
2023-02-19T07:25:31.618Z,1.90
2023-02-19T07:27:58.578Z,2.43
2023-02-19T07:30:26.816Z,2.00
2023-02-19T07:32:53.727Z,2.17
2023-02-19T07:35:20.623Z,2.70
2023-02-19T07:37:47.472Z,2.90
2023-02-19T07:40:14.714Z,2.20
2023-02-19T07:42:41.672Z,2.90
2023-02-19T07:45:08.860Z,2.63
2023-02-19T07:47:37.226Z,2.20
2023-02-19T07:50:04.906Z,2.17
2023-02-19T07:52:33.471Z,2.40
2023-02-19T07:55:00.339Z,2.10
2023-02-19T07:57:28.763Z,2.30
2023-02-19T07:59:55.619Z,2.60
2023-02-19T08:02:41.157Z,2.80
2023-02-19T08:05:10.483Z,2.67
2023-02-19T08:07:37.727Z,2.50
2023-02-19T08:10:24.714Z,2.30
2023-02-19T08:13:17.863Z,2.80
2023-02-19T08:15:45.350Z,2.40
2023-02-19T08:18:14.141Z,3.13
2023-02-19T08:20:43.727Z,3.30
2023-02-19T08:23:12.191Z,3.27
2023-02-19T08:25:40.601Z,3.33
2023-02-19T08:28:10.665Z,4.10
2023-02-19T08:30:39.817Z,4.33
2023-02-19T08:33:08.323Z,3.30
2023-02-19T08:35:36.512Z,3.90
2023-02-19T08:38:07.991Z,4.87
2023-02-19T08:40:35.344Z,5.03
2023-02-19T08:43:04.322Z,5.43
2023-02-19T08:45:31.287Z,4.47
2023-02-19T08:47:58.483Z,5.10
2023-02-19T08:50:26.060Z,4.90
2023-02-19T08:52:53.200Z,4.93
2023-02-19T08:55:21.707Z,4.03
2023-02-19T08:57:50.604Z,4.17
2023-02-19T09:00:18.455Z,4.97
2023-02-19T09:02:45.483Z,3.40
2023-02-19T09:05:12.676Z,4.50
2023-02-19T09:07:40.383Z,4.37
2023-02-19T09:10:09.807Z,4.63
2023-02-19T09:12:38.314Z,4.37
2023-02-19T09:15:06.606Z,4.10
2023-02-19T09:17:33.534Z,3.93
2023-02-19T09:20:00.384Z,3.87
2023-02-19T09:22:27.395Z,3.60
2023-02-19T09:24:54.326Z,3.83
2023-02-19T09:27:21.783Z,3.30
2023-02-19T09:29:50.017Z,3.40
2023-02-19T09:32:19.087Z,2.10
2023-02-19T09:34:46.383Z,2.77
2023-02-19T09:37:13.282Z,3.20
2023-02-19T09:39:40.196Z,3.10
2023-02-19T09:42:18.296Z,2.70
2023-02-19T09:44:50.359Z,2.77
2023-02-19T09:47:20.380Z,2.27
2023-02-19T09:49:51.230Z,2.87
2023-02-19T09:52:30.443Z,2.60
2023-02-19T09:55:02.719Z,1.97
2023-02-19T09:57:35.842Z,1.20
2023-02-19T10:00:23.598Z,1.80
2023-02-19T10:03:00.450Z,1.47
2023-02-19T10:05:28.145Z,1.70
2023-02-19T10:07:56.359Z,1.87
2023-02-19T10:10:29.953Z,1.90
2023-02-19T10:13:12.999Z,1.97
2023-02-19T10:15:48.583Z,2.33
2023-02-19T10:18:22.399Z,2.13
2023-02-19T10:20:51.771Z,1.83
2023-02-19T10:23:19.406Z,1.40
2023-02-19T10:25:52.176Z,1.37
2023-02-19T10:28:25.054Z,1.70
2023-02-19T10:30:57.682Z,1.40
2023-02-19T10:33:26.154Z,1.60
2023-02-19T10:35:57.154Z,1.27
2023-02-19T10:38:28.816Z,1.70
2023-02-19T10:41:04.542Z,1.60
2023-02-19T10:43:37.138Z,1.87
2023-02-19T10:46:16.717Z,1.87
2023-02-19T10:48:51.768Z,1.60
2023-02-19T10:51:22.844Z,1.37
2023-02-19T10:54:02.543Z,1.40
2023-02-19T10:56:31.271Z,1.70
2023-02-19T10:59:21.083Z,1.30
2023-02-19T11:01:57.547Z,2.10
2023-02-19T11:04:27.045Z,1.80
2023-02-19T11:06:54.540Z,3.00
2023-02-19T11:09:35.151Z,1.87
2023-02-19T11:12:04.858Z,2.17
2023-02-19T11:14:34.009Z,2.70
2023-02-19T11:17:05.554Z,1.60
2023-02-19T11:19:38.816Z,2.30
2023-02-19T11:22:46.938Z,1.87
2023-02-19T11:25:25.704Z,2.90
2023-02-19T11:28:02.506Z,1.97
2023-02-19T11:30:39.741Z,2.60
2023-02-19T11:33:27.734Z,1.60
2023-02-19T11:36:24.432Z,1.50
2023-02-19T11:38:51.444Z,1.57
2023-02-19T11:41:45.367Z,1.53
2023-02-19T11:44:32.694Z,1.37
2023-02-19T11:47:30.894Z,1.40
2023-02-19T11:50:11.593Z,1.80
2023-02-19T11:52:52.301Z,1.87
2023-02-19T11:55:35.418Z,1.83
2023-02-19T11:58:32.350Z,1.40
2023-02-19T12:01:11.995Z,1.20
2023-02-19T12:04:08.282Z,1.80
2023-02-19T12:06:59.727Z,1.50
2023-02-19T12:09:47.757Z,1.30
2023-02-19T12:12:33.405Z,1.97
2023-02-19T12:15:40.985Z,1.80
2023-02-19T12:19:09.029Z,1.70
2023-02-19T12:22:03.613Z,1.70
2023-02-19T12:25:00.511Z,1.77
2023-02-19T12:27:45.629Z,1.83
2023-02-19T12:30:35.392Z,1.47
2023-02-19T12:33:29.345Z,1.50
2023-02-19T12:36:13.347Z,1.90
2023-02-19T12:38:45.311Z,1.70
2023-02-19T12:41:35.689Z,1.40
2023-02-19T12:44:12.423Z,1.40
2023-02-19T12:46:46.664Z,1.83
2023-02-19T12:49:24.909Z,1.63
2023-02-19T12:51:59.634Z,1.57
2023-02-19T12:54:34.609Z,1.60
2023-02-19T12:57:06.508Z,1.87
2023-02-19T12:59:42.457Z,1.80
2023-02-19T13:02:19.341Z,1.60
2023-02-19T13:04:58.568Z,1.60
2023-02-19T13:07:35.233Z,1.40
2023-02-19T13:10:23.160Z,1.77
2023-02-19T13:12:54.609Z,1.80
2023-02-19T13:15:31.598Z,2.10
2023-02-19T13:18:02.495Z,1.63
2023-02-19T13:20:35.182Z,1.30
2023-02-19T13:23:29.993Z,1.33
2023-02-19T13:26:23.373Z,1.17
2023-02-19T13:29:13.623Z,1.40
2023-02-19T13:32:05.855Z,1.37
2023-02-19T13:34:55.481Z,1.33
2023-02-19T13:37:24.682Z,1.20
2023-02-19T13:39:55.418Z,1.70
2023-02-19T13:42:32.730Z,1.20
2023-02-19T13:45:01.605Z,1.40
2023-02-19T13:47:58.322Z,1.50
2023-02-19T13:50:28.768Z,1.53
2023-02-19T13:52:57.007Z,1.77
2023-02-19T13:55:52.555Z,1.60
2023-02-19T13:59:01.375Z,1.27
2023-02-19T14:02:26.859Z,1.20
2023-02-19T14:05:00.342Z,1.43
2023-02-19T14:07:54.381Z,1.30
2023-02-19T14:10:52.923Z,2.30
2023-02-19T14:13:59.372Z,1.53
2023-02-19T14:16:50.228Z,1.40
2023-02-19T14:19:47.970Z,1.30
2023-02-19T14:23:01.253Z,1.40
2023-02-19T14:25:49.442Z,1.40
2023-02-19T14:28:36.112Z,1.73
2023-02-19T14:31:18.163Z,1.13
2023-02-19T14:33:50.250Z,1.80
2023-02-19T14:36:32.819Z,2.00
2023-02-19T14:39:03.891Z,0.90
2023-02-19T14:41:36.745Z,1.30
2023-02-19T14:44:07.402Z,1.20
2023-02-19T14:46:43.078Z,1.43
2023-02-19T14:49:20.237Z,1.30
2023-02-19T14:51:53.998Z,1.53
2023-02-19T14:54:38.919Z,1.10
2023-02-19T14:57:17.070Z,1.43
2023-02-19T14:59:54.149Z,1.20
2023-02-19T15:02:21.989Z,1.90
2023-02-19T15:04:48.976Z,1.70
2023-02-19T15:07:23.336Z,1.67
2023-02-19T15:09:54.680Z,1.20
2023-02-19T15:12:26.493Z,1.10
2023-02-19T15:14:57.095Z,1.40
2023-02-19T15:17:29.115Z,1.10
2023-02-19T15:20:25.572Z,1.60
2023-02-19T15:22:56.095Z,1.43
2023-02-19T15:25:29.661Z,1.33
2023-02-19T15:27:56.637Z,1.13
2023-02-19T15:30:27.441Z,1.43
2023-02-19T15:32:57.642Z,1.20
2023-02-19T15:35:27.582Z,1.80
2023-02-19T15:37:56.796Z,1.20
2023-02-19T15:40:30.884Z,1.53
2023-02-19T15:42:59.164Z,1.60
2023-02-19T15:45:31.407Z,1.20
2023-02-19T15:48:06.927Z,1.70
2023-02-19T15:50:39.901Z,1.30
2023-02-19T15:53:34.065Z,1.50
2023-02-19T15:56:08.832Z,1.57
2023-02-19T15:58:42.570Z,1.27
2023-02-19T16:01:19.399Z,1.23
2023-02-19T16:03:47.644Z,2.00
2023-02-19T16:06:23.251Z,0.93
2023-02-19T16:09:25.735Z,2.00
2023-02-19T16:11:58.961Z,1.67
2023-02-19T16:14:32.162Z,1.57
2023-02-19T16:17:11.972Z,1.90
2023-02-19T16:19:47.616Z,1.70
2023-02-19T16:22:18.935Z,1.40
2023-02-19T16:24:51.292Z,1.07
2023-02-19T16:27:31.162Z,1.40
2023-02-19T16:30:00.687Z,1.40
2023-02-19T16:32:27.765Z,1.70
2023-02-19T16:34:54.893Z,1.50
2023-02-19T16:37:38.666Z,1.97
2023-02-19T16:41:10.824Z,1.60
2023-02-19T16:43:43.305Z,1.60
2023-02-19T16:46:12.771Z,1.83
2023-02-19T16:48:39.932Z,1.77
2023-02-19T16:51:08.609Z,1.90
2023-02-19T16:53:35.777Z,1.87
2023-02-19T16:56:04.668Z,1.73
2023-02-19T16:58:31.563Z,2.10
2023-02-19T17:00:58.498Z,1.70
2023-02-19T17:03:26.132Z,1.90
2023-02-19T17:05:53.468Z,1.60
2023-02-19T17:08:40.519Z,1.70
2023-02-19T17:11:13.598Z,1.67
2023-02-19T17:13:42.024Z,2.10
2023-02-19T17:16:17.605Z,2.40
2023-02-19T17:18:44.645Z,2.40
2023-02-19T17:21:17.938Z,2.67
2023-02-19T17:23:45.295Z,2.17
2023-02-19T17:26:15.030Z,2.23
2023-02-19T17:28:42.330Z,2.10
2023-02-19T17:31:10.397Z,2.57
2023-02-19T17:33:38.093Z,2.73
2023-02-19T17:36:06.286Z,2.90
2023-02-19T17:38:33.477Z,2.50
2023-02-19T17:41:00.398Z,2.50
2023-02-19T17:43:28.638Z,2.60
2023-02-19T17:45:55.558Z,3.70
2023-02-19T17:48:22.438Z,3.33
2023-02-19T17:50:50.193Z,3.30
2023-02-19T17:53:17.053Z,3.40
2023-02-19T17:55:44.485Z,2.80
2023-02-19T17:58:11.870Z,3.27
2023-02-19T18:00:40.304Z,2.73
2023-02-19T18:03:07.861Z,2.40
2023-02-19T18:05:34.776Z,2.37
2023-02-19T18:08:01.895Z,2.37
2023-02-19T18:10:30.420Z,2.57
2023-02-19T18:12:57.433Z,2.40
2023-02-19T18:15:26.755Z,2.10
2023-02-19T18:17:56.285Z,2.40
2023-02-19T18:20:26.010Z,2.40
2023-02-19T18:22:54.024Z,2.80
2023-02-19T18:25:22.653Z,2.50
2023-02-19T18:27:50.427Z,2.90
2023-02-19T18:30:22.462Z,2.50
2023-02-19T18:32:49.972Z,2.63
2023-02-19T18:35:20.299Z,2.60
2023-02-19T18:37:51.533Z,2.13
2023-02-19T18:40:19.714Z,1.87
2023-02-19T18:42:46.613Z,2.90
2023-02-19T18:45:14.624Z,2.57
2023-02-19T18:47:41.770Z,2.07
2023-02-19T18:50:10.640Z,2.33
2023-02-19T18:52:38.904Z,3.00
2023-02-19T18:55:07.285Z,2.33
2023-02-19T18:57:34.149Z,2.70
2023-02-19T19:00:01.058Z,2.33
2023-02-19T19:02:33.687Z,2.73
2023-02-19T19:05:06.853Z,2.57
2023-02-19T19:07:33.714Z,2.17
2023-02-19T19:10:02.091Z,1.83
2023-02-19T19:12:29.007Z,2.77
2023-02-19T19:14:55.968Z,2.80
2023-02-19T19:17:22.830Z,3.17
2023-02-19T19:19:49.757Z,3.03
2023-02-19T19:22:22.093Z,3.50
2023-02-19T19:24:49.131Z,3.20
2023-02-19T19:27:20.539Z,2.60
2023-02-19T19:29:47.867Z,2.40
2023-02-19T19:32:14.963Z,2.60
2023-02-19T19:34:42.987Z,2.43
2023-02-19T19:37:09.922Z,2.70
2023-02-19T19:39:37.266Z,2.37
2023-02-19T19:42:04.982Z,2.40
2023-02-19T19:44:33.252Z,2.43
2023-02-19T19:47:00.133Z,2.10
2023-02-19T19:49:27.118Z,2.60
2023-02-19T19:51:54.080Z,2.37
2023-02-19T19:54:20.966Z,2.67
2023-02-19T19:56:49.719Z,2.50
2023-02-19T19:59:17.891Z,2.10
2023-02-19T20:01:51.789Z,2.70
2023-02-19T20:04:21.100Z,2.43
2023-02-19T20:06:49.094Z,2.80
2023-02-19T20:09:17.140Z,2.47
2023-02-19T20:11:45.899Z,2.80
2023-02-19T20:14:12.869Z,2.17
2023-02-19T20:16:39.739Z,2.13
2023-02-19T20:19:08.478Z,2.80
2023-02-19T20:21:35.450Z,2.40
2023-02-19T20:24:02.950Z,2.13
2023-02-19T20:26:31.706Z,2.50
2023-02-19T20:28:59.115Z,2.30
2023-02-19T20:31:26.507Z,2.30
2023-02-19T20:33:53.625Z,2.23
2023-02-19T20:36:22.052Z,2.87
2023-02-19T20:38:50.175Z,2.23
2023-02-19T20:41:17.019Z,2.37
2023-02-19T20:43:43.912Z,2.73
2023-02-19T20:46:11.696Z,2.03
2023-02-19T20:48:39.139Z,2.83
2023-02-19T20:51:06.178Z,2.50
2023-02-19T20:53:34.547Z,2.47
2023-02-19T20:56:01.666Z,2.23
2023-02-19T20:58:28.544Z,2.57
2023-02-19T21:00:55.721Z,2.80
2023-02-19T21:03:22.648Z,3.00
2023-02-19T21:05:49.676Z,2.80
2023-02-19T21:08:17.263Z,2.87
2023-02-19T21:10:46.517Z,2.90
2023-02-19T21:13:13.997Z,2.87
2023-02-19T21:15:41.051Z,2.87
2023-02-19T21:18:08.195Z,3.33
2023-02-19T21:20:35.125Z,2.60
2023-02-19T21:23:02.093Z,2.53
2023-02-19T21:25:31.307Z,3.13
2023-02-19T21:27:59.505Z,2.70
2023-02-19T21:30:26.391Z,2.73
2023-02-19T21:32:53.358Z,2.57
2023-02-19T21:35:20.267Z,2.80
2023-02-19T21:37:47.136Z,2.57
2023-02-19T21:40:14.664Z,2.90
2023-02-19T21:42:41.534Z,2.80
2023-02-19T21:45:09.993Z,2.63
2023-02-19T21:47:36.862Z,2.30
2023-02-19T21:50:04.579Z,1.93
2023-02-19T21:52:31.718Z,2.70
2023-02-19T21:54:58.666Z,2.17
2023-02-19T21:57:25.610Z,2.30
2023-02-19T21:59:52.483Z,2.03
2023-02-19T22:02:22.137Z,2.20
2023-02-19T22:04:53.480Z,1.90
2023-02-19T22:07:21.550Z,2.50
2023-02-19T22:09:49.265Z,2.20
2023-02-19T22:12:16.441Z,2.30
2023-02-19T22:14:43.361Z,2.60
2023-02-19T22:17:10.863Z,2.23
2023-02-19T22:19:39.201Z,2.23
2023-02-19T22:22:06.187Z,2.20
2023-02-19T22:24:33.048Z,2.00
2023-02-19T22:26:59.966Z,2.63
2023-02-19T22:29:26.875Z,2.60
2023-02-19T22:31:53.994Z,3.00
2023-02-19T22:34:20.986Z,2.33
2023-02-19T22:36:49.491Z,2.53
2023-02-19T22:39:19.379Z,1.90
2023-02-19T22:41:46.756Z,2.30
2023-02-19T22:44:14.015Z,2.43
2023-02-19T22:46:48.259Z,2.30
2023-02-19T22:49:15.518Z,2.30
2023-02-19T22:51:52.013Z,2.40
2023-02-19T22:54:21.698Z,2.30
2023-02-19T22:56:48.622Z,2.20
2023-02-19T22:59:15.569Z,2.40
2023-02-19T23:01:43.003Z,2.00
2023-02-19T23:04:09.972Z,2.37
2023-02-19T23:06:37.774Z,2.00
2023-02-19T23:09:10.715Z,2.20
2023-02-19T23:11:39.294Z,2.40
2023-02-19T23:14:07.595Z,2.20
2023-02-19T23:16:38.232Z,3.20
2023-02-19T23:19:08.017Z,2.47
2023-02-19T23:21:34.975Z,2.30
2023-02-19T23:24:02.020Z,2.30
2023-02-19T23:26:30.419Z,2.33
2023-02-19T23:28:57.825Z,2.63
2023-02-19T23:31:26.684Z,2.00
2023-02-19T23:33:55.076Z,2.40
2023-02-19T23:36:23.754Z,2.30
2023-02-19T23:38:50.959Z,2.70
2023-02-19T23:41:18.708Z,2.13
2023-02-19T23:43:47.284Z,1.97
2023-02-19T23:46:17.656Z,2.00
2023-02-19T23:48:46.039Z,2.07
2023-02-19T23:51:13.071Z,2.23
2023-02-19T23:53:40.299Z,2.13
2023-02-19T23:56:07.866Z,2.20
2023-02-19T23:58:34.802Z,2.03
